Augusta Springs, Virginia
Current Conditions -  °F | °C
As of 11:35 PM on Saturday 20 Dec 2014 (Local Time) from KW13 Reporting Station
Overcast Overcast  
Wind Chill: 32°   Ceiling: 6000
Heat Index: 32°   Visibility: 10mi
Dew Point: 26°   Wind: 0mph
Humidity: 77%   Direction: NA
Pressure: 30.22"   Gusts: NA
Location:  38.1°N, 79.32°W
Report Text: KW13 210435Z AUTO 00000KT 10SM OVC060 00/M04 A3022 RMK AO1 T00001036
Loading
Personal Weather Stations






























Interactive Weather Map New forecast layout! Learn more

10-Day Weather Forecast

Advertisements
Track Severe Weather on mobile